sensor_id;sensor_type;location;lat;lon;timestamp;temperature;humidity
22130;DHT22;11231;50.746;4.272;2023-06-24T00:02:20;19.30;99.90
22130;DHT22;11231;50.746;4.272;2023-06-24T00:04:50;19.10;99.90
22130;DHT22;11231;50.746;4.272;2023-06-24T00:07:16;19.00;99.90
22130;DHT22;11231;50.746;4.272;2023-06-24T00:09:42;18.90;99.90
22130;DHT22;11231;50.746;4.272;2023-06-24T00:12:08;18.90;99.90
22130;DHT22;11231;50.746;4.272;2023-06-24T00:14:34;18.90;99.90
22130;DHT22;11231;50.746;4.272;2023-06-24T00:17:01;18.90;99.90
22130;DHT22;11231;50.746;4.272;2023-06-24T00:19:27;18.90;99.90
22130;DHT22;11231;50.746;4.272;2023-06-24T00:21:53;19.00;99.90
22130;DHT22;11231;50.746;4.272;2023-06-24T00:24:22;18.90;99.90
22130;DHT22;11231;50.746;4.272;2023-06-24T00:26:55;18.80;99.90
22130;DHT22;11231;50.746;4.272;2023-06-24T00:29:21;18.60;99.90
22130;DHT22;11231;50.746;4.272;2023-06-24T00:31:47;18.60;99.90
22130;DHT22;11231;50.746;4.272;2023-06-24T00:34:13;18.60;99.90
22130;DHT22;11231;50.746;4.272;2023-06-24T00:36:39;18.70;99.90
22130;DHT22;11231;50.746;4.272;2023-06-24T00:39:05;18.70;99.90
22130;DHT22;11231;50.746;4.272;2023-06-24T00:41:34;18.60;99.90
22130;DHT22;11231;50.746;4.272;2023-06-24T00:44:01;18.70;99.90
22130;DHT22;11231;50.746;4.272;2023-06-24T00:46:27;18.60;99.90
22130;DHT22;11231;50.746;4.272;2023-06-24T00:48:57;18.60;99.90
22130;DHT22;11231;50.746;4.272;2023-06-24T00:51:25;18.60;99.90
22130;DHT22;11231;50.746;4.272;2023-06-24T00:53:53;18.50;99.90
22130;DHT22;11231;50.746;4.272;2023-06-24T00:56:21;18.50;99.90
22130;DHT22;11231;50.746;4.272;2023-06-24T00:58:52;18.50;99.90
22130;DHT22;11231;50.746;4.272;2023-06-24T01:01:18;18.50;99.90
22130;DHT22;11231;50.746;4.272;2023-06-24T01:03:45;18.60;99.90
22130;DHT22;11231;50.746;4.272;2023-06-24T01:06:13;18.50;99.90
22130;DHT22;11231;50.746;4.272;2023-06-24T01:08:39;18.30;99.90
22130;DHT22;11231;50.746;4.272;2023-06-24T01:11:05;18.20;99.90
22130;DHT22;11231;50.746;4.272;2023-06-24T01:13:31;18.20;99.90
22130;DHT22;11231;50.746;4.272;2023-06-24T01:16:02;18.20;99.90
22130;DHT22;11231;50.746;4.272;2023-06-24T01:18:38;18.20;99.90
22130;DHT22;11231;50.746;4.272;2023-06-24T01:24:24;18.20;99.90
22130;DHT22;11231;50.746;4.272;2023-06-24T01:27:15;18.10;99.90
22130;DHT22;11231;50.746;4.272;2023-06-24T01:32:35;17.90;99.90
22130;DHT22;11231;50.746;4.272;2023-06-24T01:35:16;17.80;99.90
22130;DHT22;11231;50.746;4.272;2023-06-24T01:37:48;17.80;99.90
22130;DHT22;11231;50.746;4.272;2023-06-24T01:40:28;17.90;99.90
22130;DHT22;11231;50.746;4.272;2023-06-24T01:42:57;17.80;99.90
22130;DHT22;11231;50.746;4.272;2023-06-24T01:45:30;17.90;99.90
22130;DHT22;11231;50.746;4.272;2023-06-24T01:48:05;17.80;99.90
22130;DHT22;11231;50.746;4.272;2023-06-24T01:50:35;17.80;99.90
22130;DHT22;11231;50.746;4.272;2023-06-24T01:53:04;17.60;99.90
22130;DHT22;11231;50.746;4.272;2023-06-24T01:55:34;17.50;99.90
22130;DHT22;11231;50.746;4.272;2023-06-24T01:58:02;17.50;99.90
22130;DHT22;11231;50.746;4.272;2023-06-24T02:00:29;17.40;99.90
22130;DHT22;11231;50.746;4.272;2023-06-24T02:02:55;17.40;99.90
22130;DHT22;11231;50.746;4.272;2023-06-24T02:05:22;17.40;99.90
22130;DHT22;11231;50.746;4.272;2023-06-24T02:07:52;17.40;99.90
22130;DHT22;11231;50.746;4.272;2023-06-24T02:10:19;17.40;99.90
22130;DHT22;11231;50.746;4.272;2023-06-24T02:12:47;17.40;99.90
22130;DHT22;11231;50.746;4.272;2023-06-24T02:15:14;17.50;99.90
22130;DHT22;11231;50.746;4.272;2023-06-24T02:17:41;17.40;99.90
22130;DHT22;11231;50.746;4.272;2023-06-24T02:20:08;17.30;99.90
22130;DHT22;11231;50.746;4.272;2023-06-24T02:22:38;17.30;99.90
22130;DHT22;11231;50.746;4.272;2023-06-24T02:25:05;17.30;99.90
22130;DHT22;11231;50.746;4.272;2023-06-24T02:27:32;17.20;99.90
22130;DHT22;11231;50.746;4.272;2023-06-24T02:30:00;17.20;99.90
22130;DHT22;11231;50.746;4.272;2023-06-24T02:32:26;17.30;99.90
22130;DHT22;11231;50.746;4.272;2023-06-24T02:34:52;17.30;99.90
22130;DHT22;11231;50.746;4.272;2023-06-24T02:37:17;17.30;99.90
22130;DHT22;11231;50.746;4.272;2023-06-24T02:39:43;17.30;99.90
22130;DHT22;11231;50.746;4.272;2023-06-24T02:42:12;17.20;99.90
22130;DHT22;11231;50.746;4.272;2023-06-24T02:44:41;17.10;99.90
22130;DHT22;11231;50.746;4.272;2023-06-24T02:47:09;17.10;99.90
22130;DHT22;11231;50.746;4.272;2023-06-24T02:49:37;17.00;99.90
22130;DHT22;11231;50.746;4.272;2023-06-24T02:52:05;17.00;99.90
22130;DHT22;11231;50.746;4.272;2023-06-24T02:54:33;16.90;99.90
22130;DHT22;11231;50.746;4.272;2023-06-24T02:57:17;16.90;99.90
22130;DHT22;11231;50.746;4.272;2023-06-24T03:00:18;16.70;99.90
22130;DHT22;11231;50.746;4.272;2023-06-24T03:03:17;16.70;99.90
22130;DHT22;11231;50.746;4.272;2023-06-24T03:05:49;16.70;99.90
22130;DHT22;11231;50.746;4.272;2023-06-24T03:08:16;16.70;99.90
22130;DHT22;11231;50.746;4.272;2023-06-24T03:10:44;16.60;99.90
22130;DHT22;11231;50.746;4.272;2023-06-24T03:13:16;16.60;99.90
22130;DHT22;11231;50.746;4.272;2023-06-24T03:15:45;16.60;99.90
22130;DHT22;11231;50.746;4.272;2023-06-24T03:18:12;16.60;99.90
22130;DHT22;11231;50.746;4.272;2023-06-24T03:20:38;16.60;99.90
22130;DHT22;11231;50.746;4.272;2023-06-24T03:23:07;16.60;99.90
22130;DHT22;11231;50.746;4.272;2023-06-24T03:25:35;16.60;99.90
22130;DHT22;11231;50.746;4.272;2023-06-24T03:28:01;16.60;99.90
22130;DHT22;11231;50.746;4.272;2023-06-24T03:30:30;16.50;99.90
22130;DHT22;11231;50.746;4.272;2023-06-24T03:32:57;16.60;99.90
22130;DHT22;11231;50.746;4.272;2023-06-24T03:35:23;16.60;99.90
22130;DHT22;11231;50.746;4.272;2023-06-24T03:37:49;16.60;99.90
22130;DHT22;11231;50.746;4.272;2023-06-24T03:40:15;16.70;99.90
22130;DHT22;11231;50.746;4.272;2023-06-24T03:42:41;16.70;99.90
22130;DHT22;11231;50.746;4.272;2023-06-24T03:45:07;16.60;99.90
22130;DHT22;11231;50.746;4.272;2023-06-24T03:47:33;16.70;99.90
22130;DHT22;11231;50.746;4.272;2023-06-24T03:49:59;16.70;99.90
22130;DHT22;11231;50.746;4.272;2023-06-24T03:52:25;16.70;99.90
22130;DHT22;11231;50.746;4.272;2023-06-24T03:54:51;16.70;99.90
22130;DHT22;11231;50.746;4.272;2023-06-24T03:57:18;16.70;99.90
22130;DHT22;11231;50.746;4.272;2023-06-24T03:59:43;16.60;99.90
22130;DHT22;11231;50.746;4.272;2023-06-24T04:02:09;16.60;99.90
22130;DHT22;11231;50.746;4.272;2023-06-24T04:04:36;16.60;99.90
22130;DHT22;11231;50.746;4.272;2023-06-24T04:07:03;16.70;99.90
22130;DHT22;11231;50.746;4.272;2023-06-24T04:09:33;16.80;99.90
22130;DHT22;11231;50.746;4.272;2023-06-24T04:11:59;16.80;99.90
22130;DHT22;11231;50.746;4.272;2023-06-24T04:14:28;16.90;99.90
22130;DHT22;11231;50.746;4.272;2023-06-24T04:16:54;16.90;99.90
22130;DHT22;11231;50.746;4.272;2023-06-24T04:19:20;16.90;99.90
22130;DHT22;11231;50.746;4.272;2023-06-24T04:21:46;17.00;99.90
22130;DHT22;11231;50.746;4.272;2023-06-24T04:24:12;17.00;99.90
22130;DHT22;11231;50.746;4.272;2023-06-24T04:26:37;17.10;99.90
22130;DHT22;11231;50.746;4.272;2023-06-24T04:29:03;17.20;99.90
22130;DHT22;11231;50.746;4.272;2023-06-24T04:31:29;17.50;99.90
22130;DHT22;11231;50.746;4.272;2023-06-24T04:33:55;18.40;99.90
22130;DHT22;11231;50.746;4.272;2023-06-24T04:36:20;19.70;99.90
22130;DHT22;11231;50.746;4.272;2023-06-24T04:38:46;21.10;99.90
22130;DHT22;11231;50.746;4.272;2023-06-24T04:41:12;22.00;99.90
22130;DHT22;11231;50.746;4.272;2023-06-24T04:43:38;23.00;99.90
22130;DHT22;11231;50.746;4.272;2023-06-24T04:46:04;23.90;99.90
22130;DHT22;11231;50.746;4.272;2023-06-24T04:48:29;24.20;99.90
22130;DHT22;11231;50.746;4.272;2023-06-24T04:50:55;24.60;99.90
22130;DHT22;11231;50.746;4.272;2023-06-24T04:53:23;25.20;99.90
22130;DHT22;11231;50.746;4.272;2023-06-24T04:55:49;26.10;99.90
22130;DHT22;11231;50.746;4.272;2023-06-24T04:58:14;26.50;99.90
22130;DHT22;11231;50.746;4.272;2023-06-24T05:00:40;27.20;99.90
22130;DHT22;11231;50.746;4.272;2023-06-24T05:03:06;27.20;99.90
22130;DHT22;11231;50.746;4.272;2023-06-24T05:05:32;27.50;99.90
22130;DHT22;11231;50.746;4.272;2023-06-24T05:07:57;28.20;99.90
22130;DHT22;11231;50.746;4.272;2023-06-24T05:10:23;28.60;99.90
22130;DHT22;11231;50.746;4.272;2023-06-24T05:12:48;28.90;99.90
22130;DHT22;11231;50.746;4.272;2023-06-24T05:15:14;29.40;99.90
22130;DHT22;11231;50.746;4.272;2023-06-24T05:17:40;29.20;99.90
22130;DHT22;11231;50.746;4.272;2023-06-24T05:20:06;30.00;99.90
22130;DHT22;11231;50.746;4.272;2023-06-24T05:22:32;30.40;99.30
22130;DHT22;11231;50.746;4.272;2023-06-24T05:24:58;30.20;97.50
22130;DHT22;11231;50.746;4.272;2023-06-24T05:27:23;30.00;98.00
22130;DHT22;11231;50.746;4.272;2023-06-24T05:29:49;30.10;97.20
22130;DHT22;11231;50.746;4.272;2023-06-24T05:32:15;30.70;97.10
22130;DHT22;11231;50.746;4.272;2023-06-24T05:34:43;30.80;95.40
22130;DHT22;11231;50.746;4.272;2023-06-24T05:37:08;30.90;94.70
22130;DHT22;11231;50.746;4.272;2023-06-24T05:39:34;31.40;94.20
22130;DHT22;11231;50.746;4.272;2023-06-24T05:42:00;31.60;92.40
22130;DHT22;11231;50.746;4.272;2023-06-24T05:44:26;32.10;92.90
22130;DHT22;11231;50.746;4.272;2023-06-24T05:46:51;32.40;91.50
22130;DHT22;11231;50.746;4.272;2023-06-24T05:49:17;33.10;89.50
22130;DHT22;11231;50.746;4.272;2023-06-24T05:51:43;33.50;87.20
22130;DHT22;11231;50.746;4.272;2023-06-24T05:54:08;33.90;84.70
22130;DHT22;11231;50.746;4.272;2023-06-24T05:56:34;34.30;83.50
22130;DHT22;11231;50.746;4.272;2023-06-24T05:59:01;34.80;81.40
22130;DHT22;11231;50.746;4.272;2023-06-24T06:01:27;35.40;78.40
22130;DHT22;11231;50.746;4.272;2023-06-24T06:03:53;35.20;76.70
22130;DHT22;11231;50.746;4.272;2023-06-24T06:06:19;35.50;75.80
22130;DHT22;11231;50.746;4.272;2023-06-24T06:08:44;35.10;74.90
22130;DHT22;11231;50.746;4.272;2023-06-24T06:11:10;35.50;74.60
22130;DHT22;11231;50.746;4.272;2023-06-24T06:13:36;35.80;73.00
22130;DHT22;11231;50.746;4.272;2023-06-24T06:16:01;35.40;71.40
22130;DHT22;11231;50.746;4.272;2023-06-24T06:18:27;35.60;72.10
22130;DHT22;11231;50.746;4.272;2023-06-24T06:20:53;34.80;71.30
22130;DHT22;11231;50.746;4.272;2023-06-24T06:23:19;35.00;71.80
22130;DHT22;11231;50.746;4.272;2023-06-24T06:25:44;35.20;71.80
22130;DHT22;11231;50.746;4.272;2023-06-24T06:28:10;35.50;71.50
22130;DHT22;11231;50.746;4.272;2023-06-24T06:30:36;35.70;69.70
22130;DHT22;11231;50.746;4.272;2023-06-24T06:33:01;35.10;68.40
22130;DHT22;11231;50.746;4.272;2023-06-24T06:35:27;34.40;69.20
22130;DHT22;11231;50.746;4.272;2023-06-24T06:37:53;34.30;71.00
22130;DHT22;11231;50.746;4.272;2023-06-24T06:40:22;34.20;71.40
22130;DHT22;11231;50.746;4.272;2023-06-24T06:42:48;34.90;71.20
22130;DHT22;11231;50.746;4.272;2023-06-24T06:45:14;35.20;69.60
22130;DHT22;11231;50.746;4.272;2023-06-24T06:47:40;35.10;69.00
22130;DHT22;11231;50.746;4.272;2023-06-24T06:50:06;34.60;69.80
22130;DHT22;11231;50.746;4.272;2023-06-24T06:52:33;35.10;70.20
22130;DHT22;11231;50.746;4.272;2023-06-24T06:54:59;35.40;70.50
22130;DHT22;11231;50.746;4.272;2023-06-24T06:57:25;35.50;69.20
22130;DHT22;11231;50.746;4.272;2023-06-24T06:59:51;35.30;67.90
22130;DHT22;11231;50.746;4.272;2023-06-24T07:02:20;35.40;68.50
22130;DHT22;11231;50.746;4.272;2023-06-24T07:04:45;35.80;69.00
22130;DHT22;11231;50.746;4.272;2023-06-24T07:07:13;36.40;65.80
22130;DHT22;11231;50.746;4.272;2023-06-24T07:09:39;36.00;65.60
22130;DHT22;11231;50.746;4.272;2023-06-24T07:12:06;35.90;65.90
22130;DHT22;11231;50.746;4.272;2023-06-24T07:14:32;36.20;67.10
22130;DHT22;11231;50.746;4.272;2023-06-24T07:16:57;37.00;66.30
22130;DHT22;11231;50.746;4.272;2023-06-24T07:19:23;37.80;63.90
22130;DHT22;11231;50.746;4.272;2023-06-24T07:21:49;36.10;63.20
22130;DHT22;11231;50.746;4.272;2023-06-24T07:24:14;37.10;66.60
22130;DHT22;11231;50.746;4.272;2023-06-24T07:26:40;37.80;64.30
22130;DHT22;11231;50.746;4.272;2023-06-24T07:29:07;38.00;61.50
22130;DHT22;11231;50.746;4.272;2023-06-24T07:31:33;38.80;60.90
22130;DHT22;11231;50.746;4.272;2023-06-24T07:33:59;37.50;61.80
22130;DHT22;11231;50.746;4.272;2023-06-24T07:36:24;37.90;61.20
22130;DHT22;11231;50.746;4.272;2023-06-24T07:38:50;37.90;60.60
22130;DHT22;11231;50.746;4.272;2023-06-24T07:41:16;39.00;59.90
22130;DHT22;11231;50.746;4.272;2023-06-24T07:43:42;38.20;59.40
22130;DHT22;11231;50.746;4.272;2023-06-24T07:46:08;39.00;58.80
22130;DHT22;11231;50.746;4.272;2023-06-24T07:48:34;39.30;57.90
22130;DHT22;11231;50.746;4.272;2023-06-24T07:50:59;39.90;56.80
22130;DHT22;11231;50.746;4.272;2023-06-24T07:53:25;40.80;56.60
22130;DHT22;11231;50.746;4.272;2023-06-24T07:55:51;40.80;54.80
22130;DHT22;11231;50.746;4.272;2023-06-24T07:58:16;41.50;55.10
22130;DHT22;11231;50.746;4.272;2023-06-24T08:00:44;42.40;54.30
22130;DHT22;11231;50.746;4.272;2023-06-24T08:03:11;41.90;52.90
22130;DHT22;11231;50.746;4.272;2023-06-24T08:05:37;42.70;53.80
22130;DHT22;11231;50.746;4.272;2023-06-24T08:08:05;43.70;52.70
22130;DHT22;11231;50.746;4.272;2023-06-24T08:10:31;44.30;51.20
22130;DHT22;11231;50.746;4.272;2023-06-24T08:12:56;44.60;49.80
22130;DHT22;11231;50.746;4.272;2023-06-24T08:15:22;43.90;49.50
22130;DHT22;11231;50.746;4.272;2023-06-24T08:17:52;42.60;49.80
22130;DHT22;11231;50.746;4.272;2023-06-24T08:20:22;42.90;49.40
22130;DHT22;11231;50.746;4.272;2023-06-24T08:22:48;43.10;48.00
22130;DHT22;11231;50.746;4.272;2023-06-24T08:25:14;43.60;49.00
22130;DHT22;11231;50.746;4.272;2023-06-24T08:27:40;43.70;47.90
22130;DHT22;11231;50.746;4.272;2023-06-24T08:30:07;43.60;48.90
22130;DHT22;11231;50.746;4.272;2023-06-24T08:32:33;44.00;47.50
22130;DHT22;11231;50.746;4.272;2023-06-24T08:34:59;44.00;47.70
22130;DHT22;11231;50.746;4.272;2023-06-24T08:37:24;44.40;47.50
22130;DHT22;11231;50.746;4.272;2023-06-24T08:39:50;44.20;46.90
22130;DHT22;11231;50.746;4.272;2023-06-24T08:42:16;43.70;44.80
22130;DHT22;11231;50.746;4.272;2023-06-24T08:44:41;44.10;47.00
22130;DHT22;11231;50.746;4.272;2023-06-24T08:47:07;44.90;46.30
22130;DHT22;11231;50.746;4.272;2023-06-24T08:49:34;45.50;46.40
22130;DHT22;11231;50.746;4.272;2023-06-24T08:52:03;44.60;44.60
22130;DHT22;11231;50.746;4.272;2023-06-24T08:54:30;44.30;45.10
22130;DHT22;11231;50.746;4.272;2023-06-24T08:56:59;44.10;45.60
22130;DHT22;11231;50.746;4.272;2023-06-24T08:59:27;44.10;45.40
22130;DHT22;11231;50.746;4.272;2023-06-24T09:01:53;44.70;45.90
22130;DHT22;11231;50.746;4.272;2023-06-24T09:04:18;45.10;44.50
22130;DHT22;11231;50.746;4.272;2023-06-24T09:06:44;44.30;46.10
22130;DHT22;11231;50.746;4.272;2023-06-24T09:09:20;44.90;46.20
22130;DHT22;11231;50.746;4.272;2023-06-24T09:12:01;45.40;44.90
22130;DHT22;11231;50.746;4.272;2023-06-24T09:14:29;44.80;42.20
22130;DHT22;11231;50.746;4.272;2023-06-24T09:16:57;44.20;44.00
22130;DHT22;11231;50.746;4.272;2023-06-24T09:19:25;44.20;44.30
22130;DHT22;11231;50.746;4.272;2023-06-24T09:21:55;45.00;44.70
22130;DHT22;11231;50.746;4.272;2023-06-24T09:24:21;45.20;43.40
22130;DHT22;11231;50.746;4.272;2023-06-24T09:26:47;44.90;42.50
22130;DHT22;11231;50.746;4.272;2023-06-24T09:29:13;45.00;43.20
22130;DHT22;11231;50.746;4.272;2023-06-24T09:31:49;45.40;43.30
22130;DHT22;11231;50.746;4.272;2023-06-24T09:34:18;45.40;44.60
22130;DHT22;11231;50.746;4.272;2023-06-24T09:36:45;45.10;42.50
22130;DHT22;11231;50.746;4.272;2023-06-24T09:39:16;44.60;42.10
22130;DHT22;11231;50.746;4.272;2023-06-24T09:41:42;44.10;42.70
22130;DHT22;11231;50.746;4.272;2023-06-24T09:44:11;44.80;44.20
22130;DHT22;11231;50.746;4.272;2023-06-24T09:46:37;44.40;40.90
22130;DHT22;11231;50.746;4.272;2023-06-24T09:49:06;42.40;41.40
22130;DHT22;11231;50.746;4.272;2023-06-24T09:51:39;39.90;43.70
22130;DHT22;11231;50.746;4.272;2023-06-24T09:54:09;40.80;47.40
22130;DHT22;11231;50.746;4.272;2023-06-24T09:56:37;42.10;44.80
22130;DHT22;11231;50.746;4.272;2023-06-24T09:59:08;43.00;44.50
22130;DHT22;11231;50.746;4.272;2023-06-24T10:01:36;43.70;45.10
22130;DHT22;11231;50.746;4.272;2023-06-24T10:04:05;44.60;45.50
22130;DHT22;11231;50.746;4.272;2023-06-24T10:06:33;45.20;43.30
22130;DHT22;11231;50.746;4.272;2023-06-24T10:08:59;45.40;42.70
22130;DHT22;11231;50.746;4.272;2023-06-24T10:11:25;45.90;43.30
22130;DHT22;11231;50.746;4.272;2023-06-24T10:13:52;45.90;41.00
22130;DHT22;11231;50.746;4.272;2023-06-24T10:16:18;45.10;41.30
22130;DHT22;11231;50.746;4.272;2023-06-24T10:18:45;45.70;42.30
22130;DHT22;11231;50.746;4.272;2023-06-24T10:21:11;46.40;42.30
22130;DHT22;11231;50.746;4.272;2023-06-24T10:23:42;46.30;42.20
22130;DHT22;11231;50.746;4.272;2023-06-24T10:26:30;46.10;41.60
22130;DHT22;11231;50.746;4.272;2023-06-24T10:29:08;46.10;39.40
22130;DHT22;11231;50.746;4.272;2023-06-24T10:37:10;45.60;41.10
22130;DHT22;11231;50.746;4.272;2023-06-24T10:42:40;45.50;41.60
22130;DHT22;11231;50.746;4.272;2023-06-24T10:47:41;45.80;40.80
22130;DHT22;11231;50.746;4.272;2023-06-24T10:50:09;44.10;41.20
22130;DHT22;11231;50.746;4.272;2023-06-24T10:52:45;44.30;41.60
22130;DHT22;11231;50.746;4.272;2023-06-24T10:55:18;44.40;42.60
22130;DHT22;11231;50.746;4.272;2023-06-24T10:57:44;44.80;42.80
22130;DHT22;11231;50.746;4.272;2023-06-24T11:00:11;45.00;42.40
22130;DHT22;11231;50.746;4.272;2023-06-24T11:02:37;45.00;40.80
22130;DHT22;11231;50.746;4.272;2023-06-24T11:05:04;43.90;42.60
22130;DHT22;11231;50.746;4.272;2023-06-24T11:07:34;44.10;44.00
22130;DHT22;11231;50.746;4.272;2023-06-24T11:10:09;44.60;43.30
22130;DHT22;11231;50.746;4.272;2023-06-24T11:12:37;44.80;42.90
22130;DHT22;11231;50.746;4.272;2023-06-24T11:15:05;44.50;41.40
22130;DHT22;11231;50.746;4.272;2023-06-24T11:17:32;44.60;42.20
22130;DHT22;11231;50.746;4.272;2023-06-24T11:19:58;45.00;41.90
22130;DHT22;11231;50.746;4.272;2023-06-24T11:22:25;45.00;43.30
22130;DHT22;11231;50.746;4.272;2023-06-24T11:24:51;45.50;42.60
22130;DHT22;11231;50.746;4.272;2023-06-24T11:27:27;43.90;42.60
22130;DHT22;11231;50.746;4.272;2023-06-24T11:29:54;43.20;41.70
22130;DHT22;11231;50.746;4.272;2023-06-24T11:32:21;43.70;43.20
22130;DHT22;11231;50.746;4.272;2023-06-24T11:34:47;44.50;43.20
22130;DHT22;11231;50.746;4.272;2023-06-24T11:37:15;44.30;41.30
22130;DHT22;11231;50.746;4.272;2023-06-24T11:39:41;44.40;43.20
22130;DHT22;11231;50.746;4.272;2023-06-24T11:42:08;44.30;43.80
22130;DHT22;11231;50.746;4.272;2023-06-24T11:44:34;43.90;43.60
22130;DHT22;11231;50.746;4.272;2023-06-24T11:47:06;43.90;43.80
22130;DHT22;11231;50.746;4.272;2023-06-24T11:49:32;43.30;44.60
22130;DHT22;11231;50.746;4.272;2023-06-24T11:52:12;43.40;45.00
22130;DHT22;11231;50.746;4.272;2023-06-24T11:54:41;44.00;43.60
22130;DHT22;11231;50.746;4.272;2023-06-24T11:57:08;44.30;44.10
22130;DHT22;11231;50.746;4.272;2023-06-24T11:59:33;43.60;43.30
22130;DHT22;11231;50.746;4.272;2023-06-24T12:01:59;43.30;42.90
22130;DHT22;11231;50.746;4.272;2023-06-24T12:04:32;42.60;44.20
22130;DHT22;11231;50.746;4.272;2023-06-24T12:06:59;41.20;44.00
22130;DHT22;11231;50.746;4.272;2023-06-24T12:09:25;40.20;43.50
22130;DHT22;11231;50.746;4.272;2023-06-24T12:11:52;38.70;47.00
22130;DHT22;11231;50.746;4.272;2023-06-24T12:14:18;37.70;46.70
22130;DHT22;11231;50.746;4.272;2023-06-24T12:16:45;37.00;46.70
22130;DHT22;11231;50.746;4.272;2023-06-24T12:19:11;36.40;49.40
22130;DHT22;11231;50.746;4.272;2023-06-24T12:21:37;35.70;49.50
22130;DHT22;11231;50.746;4.272;2023-06-24T12:24:04;35.10;50.40
22130;DHT22;11231;50.746;4.272;2023-06-24T12:26:36;34.60;53.80
22130;DHT22;11231;50.746;4.272;2023-06-24T12:29:02;34.20;52.60
22130;DHT22;11231;50.746;4.272;2023-06-24T12:31:28;33.90;51.40
22130;DHT22;11231;50.746;4.272;2023-06-24T12:33:54;33.50;51.90
22130;DHT22;11231;50.746;4.272;2023-06-24T12:36:21;33.00;52.50
22130;DHT22;11231;50.746;4.272;2023-06-24T12:38:50;32.70;50.60
22130;DHT22;11231;50.746;4.272;2023-06-24T12:41:16;32.60;53.10
22130;DHT22;11231;50.746;4.272;2023-06-24T12:43:43;32.60;54.10
22130;DHT22;11231;50.746;4.272;2023-06-24T12:46:11;32.60;51.90
22130;DHT22;11231;50.746;4.272;2023-06-24T12:48:38;32.50;54.30
22130;DHT22;11231;50.746;4.272;2023-06-24T12:51:03;32.30;54.90
22130;DHT22;11231;50.746;4.272;2023-06-24T12:53:29;32.30;53.50
22130;DHT22;11231;50.746;4.272;2023-06-24T12:55:55;31.90;51.70
22130;DHT22;11231;50.746;4.272;2023-06-24T12:58:23;31.80;54.10
22130;DHT22;11231;50.746;4.272;2023-06-24T13:00:50;31.70;53.30
22130;DHT22;11231;50.746;4.272;2023-06-24T13:03:16;31.70;53.70
22130;DHT22;11231;50.746;4.272;2023-06-24T13:05:45;31.70;55.30
22130;DHT22;11231;50.746;4.272;2023-06-24T13:08:11;31.80;55.50
22130;DHT22;11231;50.746;4.272;2023-06-24T13:10:37;31.80;53.60
22130;DHT22;11231;50.746;4.272;2023-06-24T13:13:04;31.70;53.30
22130;DHT22;11231;50.746;4.272;2023-06-24T13:15:29;31.60;57.40
22130;DHT22;11231;50.746;4.272;2023-06-24T13:17:56;31.20;57.20
22130;DHT22;11231;50.746;4.272;2023-06-24T13:20:22;31.00;57.80
22130;DHT22;11231;50.746;4.272;2023-06-24T13:22:47;31.10;57.20
22130;DHT22;11231;50.746;4.272;2023-06-24T13:25:13;31.20;59.10
22130;DHT22;11231;50.746;4.272;2023-06-24T13:27:39;31.10;57.60
22130;DHT22;11231;50.746;4.272;2023-06-24T13:30:05;31.00;57.70
22130;DHT22;11231;50.746;4.272;2023-06-24T13:32:31;30.90;58.10
22130;DHT22;11231;50.746;4.272;2023-06-24T13:34:57;31.00;58.00
22130;DHT22;11231;50.746;4.272;2023-06-24T13:37:23;30.80;58.70
22130;DHT22;11231;50.746;4.272;2023-06-24T13:39:48;30.60;57.80
22130;DHT22;11231;50.746;4.272;2023-06-24T13:42:17;30.40;59.10
22130;DHT22;11231;50.746;4.272;2023-06-24T13:44:43;30.40;61.60
22130;DHT22;11231;50.746;4.272;2023-06-24T13:47:09;30.30;59.00
22130;DHT22;11231;50.746;4.272;2023-06-24T13:49:35;30.30;62.40
22130;DHT22;11231;50.746;4.272;2023-06-24T13:52:01;30.40;59.30
22130;DHT22;11231;50.746;4.272;2023-06-24T13:54:27;30.50;59.60
22130;DHT22;11231;50.746;4.272;2023-06-24T13:56:56;30.60;61.00
22130;DHT22;11231;50.746;4.272;2023-06-24T13:59:22;30.60;59.50
22130;DHT22;11231;50.746;4.272;2023-06-24T14:01:47;30.50;59.80
22130;DHT22;11231;50.746;4.272;2023-06-24T14:04:13;30.50;58.60
22130;DHT22;11231;50.746;4.272;2023-06-24T14:06:39;30.20;58.00
22130;DHT22;11231;50.746;4.272;2023-06-24T14:09:05;30.20;59.70
22130;DHT22;11231;50.746;4.272;2023-06-24T14:11:31;29.90;60.80
22130;DHT22;11231;50.746;4.272;2023-06-24T14:13:56;30.00;63.20
22130;DHT22;11231;50.746;4.272;2023-06-24T14:16:22;29.90;60.30
22130;DHT22;11231;50.746;4.272;2023-06-24T14:18:48;29.80;58.40
22130;DHT22;11231;50.746;4.272;2023-06-24T14:21:13;29.70;62.50
22130;DHT22;11231;50.746;4.272;2023-06-24T14:23:39;29.80;62.40
22130;DHT22;11231;50.746;4.272;2023-06-24T14:26:05;29.70;60.20
22130;DHT22;11231;50.746;4.272;2023-06-24T14:28:31;29.40;62.10
22130;DHT22;11231;50.746;4.272;2023-06-24T14:30:57;29.50;59.30
22130;DHT22;11231;50.746;4.272;2023-06-24T14:33:22;29.50;59.60
22130;DHT22;11231;50.746;4.272;2023-06-24T14:35:48;29.40;62.70
22130;DHT22;11231;50.746;4.272;2023-06-24T14:38:14;29.40;60.70
22130;DHT22;11231;50.746;4.272;2023-06-24T14:40:40;29.30;59.50
22130;DHT22;11231;50.746;4.272;2023-06-24T14:43:05;29.30;59.10
22130;DHT22;11231;50.746;4.272;2023-06-24T14:45:31;29.30;59.70
22130;DHT22;11231;50.746;4.272;2023-06-24T14:47:57;29.40;59.70
22130;DHT22;11231;50.746;4.272;2023-06-24T14:50:23;29.50;58.60
22130;DHT22;11231;50.746;4.272;2023-06-24T14:52:48;29.60;59.30
22130;DHT22;11231;50.746;4.272;2023-06-24T14:55:14;29.70;59.40
22130;DHT22;11231;50.746;4.272;2023-06-24T14:57:40;29.60;57.70
22130;DHT22;11231;50.746;4.272;2023-06-24T15:00:07;29.60;58.70
22130;DHT22;11231;50.746;4.272;2023-06-24T15:02:33;29.60;58.00
22130;DHT22;11231;50.746;4.272;2023-06-24T15:04:59;29.50;58.10
22130;DHT22;11231;50.746;4.272;2023-06-24T15:07:24;29.60;59.00
22130;DHT22;11231;50.746;4.272;2023-06-24T15:09:50;29.60;60.30
22130;DHT22;11231;50.746;4.272;2023-06-24T15:12:16;29.70;62.50
22130;DHT22;11231;50.746;4.272;2023-06-24T15:14:41;29.80;59.30
22130;DHT22;11231;50.746;4.272;2023-06-24T15:17:10;29.90;59.20
22130;DHT22;11231;50.746;4.272;2023-06-24T15:19:36;29.70;63.40
22130;DHT22;11231;50.746;4.272;2023-06-24T15:22:02;29.70;67.20
22130;DHT22;11231;50.746;4.272;2023-06-24T15:24:27;29.80;64.60
22130;DHT22;11231;50.746;4.272;2023-06-24T15:26:53;29.90;67.80
22130;DHT22;11231;50.746;4.272;2023-06-24T15:29:19;29.90;62.10
22130;DHT22;11231;50.746;4.272;2023-06-24T15:31:44;29.90;64.00
22130;DHT22;11231;50.746;4.272;2023-06-24T15:34:11;30.00;64.30
22130;DHT22;11231;50.746;4.272;2023-06-24T15:36:37;29.90;61.50
22130;DHT22;11231;50.746;4.272;2023-06-24T15:39:03;29.80;62.20
22130;DHT22;11231;50.746;4.272;2023-06-24T15:41:28;29.70;63.20
22130;DHT22;11231;50.746;4.272;2023-06-24T15:43:54;29.70;62.10
22130;DHT22;11231;50.746;4.272;2023-06-24T15:46:20;29.60;62.70
22130;DHT22;11231;50.746;4.272;2023-06-24T15:48:47;29.60;66.30